Time;durP1;ratioP1;P1;durP2;ratioP2;P2;SDS_P1;SDS_P2;PMS_P1;PMS_P2;Temp;Humidity;BMP_temperature;BMP_pressure;BME280_temperature;BME280_humidity;BME280_pressure;Samples;Min_cycle;Max_cycle;Signal;HPM_P1;HPM_P2
2022/11/17 00:01:09;;;;;;;;;;;8.50;99.90;;;;;;5021612;28;19983;-70
2022/11/17 00:03:35;;;;;;;;;;;8.50;99.90;;;;;;5021091;28;19972;-70
2022/11/17 00:06:04;;;;;;;;;;;8.50;99.90;;;;;;5019974;28;19995;-70
2022/11/17 00:08:30;;;;;;;;;;;8.50;99.90;;;;;;5021399;28;20590;-70
2022/11/17 00:11:02;;;;;;;;;;;8.50;99.90;;;;;;5024069;28;19973;-70
2022/11/17 00:16:12;;;;;;;;;;;8.50;99.90;;;;;;5017514;28;19921;-70
2022/11/17 00:21:25;;;;;;;;;;;8.50;99.90;;;;;;5016812;28;19946;-71
2022/11/17 00:23:52;;;;;;;;;;;8.60;99.90;;;;;;5020299;28;19964;-70
2022/11/17 00:27:02;;;;;;;;;;;8.50;99.90;;;;;;5021662;28;19925;-70
2022/11/17 00:29:27;;;;;;;;;;;8.60;99.90;;;;;;5018062;28;20015;-70
2022/11/17 00:34:37;;;;;;;;;;;8.60;99.90;;;;;;5016724;28;19925;-70
2022/11/17 00:37:03;;;;;;;;;;;8.60;99.90;;;;;;5020294;28;20046;-70
2022/11/17 00:39:29;;;;;;;;;;;8.60;99.90;;;;;;5016422;28;20023;-70
2022/11/17 00:41:55;;;;;;;;;;;8.60;99.90;;;;;;5022675;28;20093;-70
2022/11/17 00:44:20;;;;;;;;;;;8.60;99.90;;;;;;5018422;28;19928;-71
2022/11/17 00:46:47;;;;;;;;;;;8.50;99.90;;;;;;5023435;28;19944;-70
2022/11/17 00:49:15;;;;;;;;;;;8.60;99.90;;;;;;5016853;28;19917;-70
2022/11/17 00:51:41;;;;;;;;;;;8.60;99.90;;;;;;5019016;28;19952;-70
2022/11/17 00:54:08;;;;;;;;;;;8.60;99.90;;;;;;5022502;28;20009;-70
2022/11/17 00:56:34;;;;;;;;;;;8.60;99.90;;;;;;5019381;28;19928;-70
2022/11/17 00:58:59;;;;;;;;;;;8.60;99.90;;;;;;5022096;28;19920;-71
2022/11/17 01:01:25;;;;;;;;;;;8.60;99.90;;;;;;5020476;28;20294;-71
2022/11/17 01:04:01;;;;;;;;;;;8.60;99.90;;;;;;5011216;28;19975;-70
2022/11/17 01:06:28;;;;;;;;;;;8.60;99.90;;;;;;5025981;28;19963;-71
2022/11/17 01:08:54;;;;;;;;;;;8.60;99.90;;;;;;5018244;28;19932;-70
2022/11/17 01:11:19;;;;;;;;;;;8.60;99.90;;;;;;5031266;28;20410;-71
2022/11/17 01:13:45;;;;;;;;;;;8.60;99.90;;;;;;5016129;28;19963;-71
2022/11/17 01:16:12;;;;;;;;;;;8.60;99.90;;;;;;5022831;28;20579;-70
2022/11/17 01:18:39;;;;;;;;;;;8.60;99.90;;;;;;5027800;28;20540;-71
2022/11/17 01:21:05;;;;;;;;;;;8.60;99.90;;;;;;5016753;28;20011;-70
2022/11/17 01:23:31;;;;;;;;;;;8.60;99.90;;;;;;5021845;28;19927;-70
2022/11/17 01:26:04;;;;;;;;;;;8.60;99.90;;;;;;5027416;28;20090;-70
2022/11/17 01:28:29;;;;;;;;;;;8.60;99.90;;;;;;5024678;28;19917;-71
2022/11/17 01:30:59;;;;;;;;;;;8.70;99.90;;;;;;5020075;28;19917;-71
2022/11/17 01:33:24;;;;;;;;;;;8.70;99.90;;;;;;5007945;28;19924;-70
2022/11/17 01:35:50;;;;;;;;;;;8.60;99.90;;;;;;5019712;28;19978;-71
2022/11/17 01:38:15;;;;;;;;;;;8.60;99.90;;;;;;5022155;28;19921;-70
2022/11/17 01:40:41;;;;;;;;;;;8.60;99.90;;;;;;5020160;28;19932;-70
2022/11/17 01:43:09;;;;;;;;;;;8.60;99.90;;;;;;5014722;28;20354;-70
2022/11/17 01:45:35;;;;;;;;;;;8.60;99.90;;;;;;5018668;28;20460;-70
2022/11/17 01:48:01;;;;;;;;;;;8.60;99.90;;;;;;5021411;28;19917;-70
2022/11/17 01:50:38;;;;;;;;;;;8.70;99.90;;;;;;5019544;28;19968;-70
2022/11/17 01:53:09;;;;;;;;;;;8.60;99.90;;;;;;5015360;28;19968;-70
2022/11/17 01:55:49;;;;;;;;;;;8.60;99.90;;;;;;5034716;28;19990;-70
2022/11/17 01:58:21;;;;;;;;;;;8.60;99.90;;;;;;5019812;28;19925;-70
2022/11/17 02:00:47;;;;;;;;;;;8.60;99.90;;;;;;5013135;28;20029;-69
2022/11/17 02:03:13;;;;;;;;;;;8.60;99.90;;;;;;5016776;28;19927;-70
2022/11/17 02:05:38;;;;;;;;;;;8.60;99.90;;;;;;5022925;28;19920;-70
2022/11/17 02:08:05;;;;;;;;;;;8.60;99.90;;;;;;5021407;28;19928;-70
2022/11/17 02:10:31;;;;;;;;;;;8.60;99.90;;;;;;5020134;28;19925;-69
2022/11/17 02:12:57;;;;;;;;;;;8.60;99.90;;;;;;5018911;28;20293;-69
2022/11/17 02:15:23;;;;;;;;;;;8.60;99.90;;;;;;5019007;28;19921;-70
2022/11/17 02:17:49;;;;;;;;;;;8.70;99.90;;;;;;5021030;28;20002;-69
2022/11/17 02:20:33;;;;;;;;;;;8.70;99.90;;;;;;5019149;28;19924;-70
2022/11/17 02:23:17;;;;;;;;;;;8.70;99.90;;;;;;5014743;28;20044;-70
2022/11/17 02:25:43;;;;;;;;;;;8.60;99.90;;;;;;5020119;28;19932;-70
2022/11/17 02:28:21;;;;;;;;;;;8.70;99.90;;;;;;5013477;28;19922;-69
2022/11/17 02:30:52;;;;;;;;;;;8.60;99.90;;;;;;5025141;28;19928;-70
2022/11/17 02:33:24;;;;;;;;;;;8.60;99.90;;;;;;5009466;28;20262;-69
2022/11/17 02:36:03;;;;;;;;;;;8.60;99.90;;;;;;5017609;28;20016;-69
2022/11/17 02:38:31;;;;;;;;;;;8.60;99.90;;;;;;5019708;28;20366;-69
2022/11/17 02:41:00;;;;;;;;;;;8.60;99.90;;;;;;5010539;28;20489;-70
2022/11/17 02:46:15;;;;;;;;;;;8.60;99.90;;;;;;5018828;28;20445;-70
2022/11/17 02:48:45;;;;;;;;;;;8.60;99.90;;;;;;5020740;28;19921;-70
2022/11/17 02:51:13;;;;;;;;;;;8.60;99.90;;;;;;5010295;28;19928;-71
2022/11/17 02:53:39;;;;;;;;;;;8.60;99.90;;;;;;5012414;28;20265;-70
2022/11/17 02:56:06;;;;;;;;;;;8.60;99.90;;;;;;5022389;28;19928;-70
2022/11/17 02:58:31;;;;;;;;;;;8.50;99.90;;;;;;5014323;28;19925;-70
2022/11/17 03:00:59;;;;;;;;;;;8.50;99.90;;;;;;5021717;28;19924;-70
2022/11/17 03:03:28;;;;;;;;;;;8.50;99.90;;;;;;5012057;28;19925;-69
2022/11/17 03:06:07;;;;;;;;;;;8.50;99.90;;;;;;5013449;28;19925;-69
2022/11/17 03:08:42;;;;;;;;;;;8.50;99.90;;;;;;5016131;28;19925;-69
2022/11/17 03:11:08;;;;;;;;;;;8.50;99.90;;;;;;5017906;28;20287;-69
2022/11/17 03:13:48;;;;;;;;;;;8.50;99.90;;;;;;5010659;28;19944;-69
2022/11/17 03:16:32;;;;;;;;;;;8.50;99.90;;;;;;5025841;28;19963;-69
2022/11/17 03:19:03;;;;;;;;;;;8.50;99.90;;;;;;5021346;28;20460;-69
2022/11/17 03:21:49;;;;;;;;;;;8.40;99.90;;;;;;5022588;28;19928;-69
2022/11/17 03:24:16;;;;;;;;;;;8.40;99.90;;;;;;5006896;28;19928;-70
2022/11/17 03:26:54;;;;;;;;;;;8.40;99.90;;;;;;5027562;28;19927;-70
2022/11/17 03:29:21;;;;;;;;;;;8.40;99.90;;;;;;5020259;28;20059;-70
2022/11/17 03:31:48;;;;;;;;;;;8.40;99.90;;;;;;5021255;28;19975;-69
2022/11/17 03:34:15;;;;;;;;;;;8.40;99.90;;;;;;5020504;28;19924;-69
2022/11/17 03:36:44;;;;;;;;;;;8.40;99.90;;;;;;5011414;28;19924;-71
2022/11/17 03:39:18;;;;;;;;;;;8.30;99.90;;;;;;5014140;28;20024;-70
2022/11/17 03:41:45;;;;;;;;;;;8.30;99.90;;;;;;5021076;28;19925;-69
2022/11/17 03:44:13;;;;;;;;;;;8.30;99.90;;;;;;5019834;28;19928;-70
2022/11/17 03:46:41;;;;;;;;;;;8.30;99.90;;;;;;5018199;28;19925;-70
2022/11/17 03:49:16;;;;;;;;;;;8.30;99.90;;;;;;5021862;28;19990;-70
2022/11/17 03:51:42;;;;;;;;;;;8.30;99.90;;;;;;5019259;28;19917;-70
2022/11/17 03:54:08;;;;;;;;;;;8.30;99.90;;;;;;5023254;28;19928;-71
2022/11/17 03:56:40;;;;;;;;;;;8.30;99.90;;;;;;5026866;28;20106;-71
2022/11/17 03:59:17;;;;;;;;;;;8.20;99.90;;;;;;5022514;28;19932;-70
2022/11/17 04:01:43;;;;;;;;;;;8.30;99.90;;;;;;5028624;28;20686;-70
2022/11/17 04:04:15;;;;;;;;;;;8.30;99.90;;;;;;5024791;28;20087;-70
2022/11/17 04:06:41;;;;;;;;;;;8.30;99.90;;;;;;5026993;28;19921;-70
2022/11/17 04:09:06;;;;;;;;;;;8.30;99.90;;;;;;5018811;28;19921;-70
2022/11/17 04:17:00;;;;;;;;;;;8.30;99.90;;;;;;5024419;28;19931;-71
2022/11/17 04:19:26;;;;;;;;;;;8.30;99.90;;;;;;5022872;28;20007;-71
2022/11/17 04:21:51;;;;;;;;;;;8.30;99.90;;;;;;5024817;28;19924;-71
2022/11/17 04:24:17;;;;;;;;;;;8.30;99.90;;;;;;5020835;28;20011;-71
2022/11/17 04:29:27;;;;;;;;;;;8.30;99.90;;;;;;5025145;28;20275;-71
2022/11/17 04:31:53;;;;;;;;;;;8.20;99.90;;;;;;5026657;28;19916;-71
2022/11/17 04:34:18;;;;;;;;;;;8.30;99.90;;;;;;5030754;28;19916;-72
2022/11/17 04:36:44;;;;;;;;;;;8.30;99.90;;;;;;5026397;28;19921;-71
2022/11/17 04:39:13;;;;;;;;;;;8.30;99.90;;;;;;5021474;28;20357;-71
2022/11/17 04:42:00;;;;;;;;;;;8.30;99.90;;;;;;5019107;28;19924;-71
2022/11/17 04:44:27;;;;;;;;;;;8.20;99.90;;;;;;5002917;28;19986;-71
2022/11/17 04:46:53;;;;;;;;;;;8.20;99.90;;;;;;5019691;28;19917;-71
2022/11/17 04:49:20;;;;;;;;;;;8.20;99.90;;;;;;5024259;28;20322;-71
2022/11/17 04:51:45;;;;;;;;;;;8.20;99.90;;;;;;5016943;28;20278;-71
2022/11/17 04:54:12;;;;;;;;;;;8.20;99.90;;;;;;5017914;28;19917;-71
2022/11/17 04:56:38;;;;;;;;;;;8.10;99.90;;;;;;5023829;28;20278;-71
2022/11/17 04:59:04;;;;;;;;;;;8.10;99.90;;;;;;5022531;28;20024;-71
2022/11/17 05:01:29;;;;;;;;;;;8.10;99.90;;;;;;5023758;28;20341;-71
2022/11/17 05:04:03;;;;;;;;;;;8.10;99.90;;;;;;5028596;28;19975;-71
2022/11/17 05:06:35;;;;;;;;;;;8.10;99.90;;;;;;5016696;28;19978;-70
2022/11/17 05:09:02;;;;;;;;;;;8.10;99.90;;;;;;5014751;28;20239;-71
2022/11/17 05:14:14;;;;;;;;;;;8.10;99.90;;;;;;5017773;28;20390;-71
2022/11/17 05:19:25;;;;;;;;;;;8.10;99.90;;;;;;5025161;28;20197;-71
2022/11/17 05:21:51;;;;;;;;;;;8.00;99.90;;;;;;5025228;28;19924;-71
2022/11/17 05:24:17;;;;;;;;;;;8.10;99.90;;;;;;5021503;28;19917;-71
2022/11/17 05:26:43;;;;;;;;;;;8.10;99.90;;;;;;5031888;28;19917;-71
2022/11/17 05:29:10;;;;;;;;;;;8.10;99.90;;;;;;5027601;28;19932;-71
2022/11/17 05:31:36;;;;;;;;;;;8.00;99.90;;;;;;5020900;28;19965;-71
2022/11/17 05:34:02;;;;;;;;;;;8.10;99.90;;;;;;5021663;28;19924;-71
2022/11/17 05:36:28;;;;;;;;;;;8.00;99.90;;;;;;5019170;28;19925;-71
2022/11/17 05:38:53;;;;;;;;;;;8.00;99.90;;;;;;5009826;28;20279;-71
2022/11/17 05:41:19;;;;;;;;;;;8.00;99.90;;;;;;5028157;28;19917;-70
2022/11/17 05:43:45;;;;;;;;;;;8.00;99.90;;;;;;5023870;28;19925;-71
2022/11/17 05:46:11;;;;;;;;;;;8.00;99.90;;;;;;5025670;28;20201;-71
2022/11/17 05:48:36;;;;;;;;;;;7.90;99.90;;;;;;5026277;28;19967;-70
2022/11/17 05:51:02;;;;;;;;;;;7.90;99.90;;;;;;5024205;28;19917;-70
2022/11/17 05:53:28;;;;;;;;;;;7.90;99.90;;;;;;5016297;28;19921;-70
2022/11/17 05:56:29;;;;;;;;;;;7.90;99.90;;;;;;5026145;28;19921;-70
2022/11/17 05:59:01;;;;;;;;;;;7.90;99.90;;;;;;4954548;28;20129;-70
2022/11/17 06:01:28;;;;;;;;;;;7.90;99.90;;;;;;5005388;28;19964;-70
2022/11/17 06:03:57;;;;;;;;;;;7.80;99.90;;;;;;5004988;28;20436;-70
2022/11/17 06:06:22;;;;;;;;;;;7.80;99.90;;;;;;5023580;28;20345;-70
2022/11/17 06:08:48;;;;;;;;;;;7.80;99.90;;;;;;5026934;28;19925;-71
2022/11/17 06:11:15;;;;;;;;;;;7.80;99.90;;;;;;5023842;28;19957;-70
2022/11/17 06:13:41;;;;;;;;;;;7.80;99.90;;;;;;5025121;28;20362;-71
2022/11/17 06:16:08;;;;;;;;;;;7.80;99.90;;;;;;5022036;28;19917;-70
2022/11/17 06:18:38;;;;;;;;;;;7.80;99.90;;;;;;5024258;28;19965;-70
2022/11/17 06:21:08;;;;;;;;;;;7.80;99.90;;;;;;5011830;28;19923;-71
2022/11/17 06:23:33;;;;;;;;;;;7.70;99.90;;;;;;5025564;28;20004;-70
2022/11/17 06:26:02;;;;;;;;;;;7.70;99.90;;;;;;5020719;28;20016;-71
2022/11/17 06:28:28;;;;;;;;;;;7.70;99.90;;;;;;5024916;28;20336;-70
2022/11/17 06:30:54;;;;;;;;;;;7.70;99.90;;;;;;5024668;28;19918;-69
2022/11/17 06:33:20;;;;;;;;;;;7.70;99.90;;;;;;5022710;28;20016;-70
2022/11/17 06:35:47;;;;;;;;;;;7.70;99.90;;;;;;5029722;28;20418;-70
2022/11/17 06:38:12;;;;;;;;;;;7.70;99.90;;;;;;5022043;28;20401;-70
2022/11/17 06:40:38;;;;;;;;;;;7.70;99.90;;;;;;5024451;28;19972;-70
2022/11/17 06:43:12;;;;;;;;;;;7.70;99.90;;;;;;5029265;28;20003;-70
2022/11/17 06:45:37;;;;;;;;;;;7.70;99.90;;;;;;5025394;28;20679;-70
2022/11/17 06:48:04;;;;;;;;;;;7.70;99.90;;;;;;5022663;28;20169;-71
2022/11/17 06:50:29;;;;;;;;;;;7.60;99.90;;;;;;5013479;28;19928;-70
2022/11/17 06:52:59;;;;;;;;;;;7.60;99.90;;;;;;5028328;28;19924;-76
2022/11/17 06:55:25;;;;;;;;;;;7.60;99.90;;;;;;5025686;28;20110;-72
2022/11/17 06:57:51;;;;;;;;;;;7.60;99.90;;;;;;5022937;28;20422;-72
2022/11/17 07:00:17;;;;;;;;;;;7.60;99.90;;;;;;5003481;28;20287;-71
2022/11/17 07:02:43;;;;;;;;;;;7.60;99.90;;;;;;5031280;28;19944;-73
2022/11/17 07:05:08;;;;;;;;;;;7.50;99.90;;;;;;5016001;28;20030;-71
2022/11/17 07:07:34;;;;;;;;;;;7.50;99.90;;;;;;5020429;28;19972;-73
2022/11/17 07:09:59;;;;;;;;;;;7.50;99.90;;;;;;5023940;28;19972;-74
2022/11/17 07:12:25;;;;;;;;;;;7.50;99.90;;;;;;5012474;28;20038;-78
2022/11/17 07:14:50;;;;;;;;;;;7.50;99.90;;;;;;5021501;28;20337;-77
2022/11/17 07:17:16;;;;;;;;;;;7.50;99.90;;;;;;5021874;28;19932;-70
2022/11/17 07:19:41;;;;;;;;;;;7.50;99.90;;;;;;5017300;28;19925;-71
2022/11/17 07:22:07;;;;;;;;;;;7.50;99.90;;;;;;5027735;28;20347;-71
2022/11/17 07:24:33;;;;;;;;;;;7.50;99.90;;;;;;5020377;28;20260;-71
2022/11/17 07:26:58;;;;;;;;;;;7.50;99.90;;;;;;5029047;28;19917;-70
2022/11/17 07:29:24;;;;;;;;;;;7.50;99.90;;;;;;5027489;28;19973;-71
2022/11/17 07:31:50;;;;;;;;;;;7.50;99.90;;;;;;5026769;28;20027;-70
2022/11/17 07:34:15;;;;;;;;;;;7.50;99.90;;;;;;5022126;28;20003;-70
2022/11/17 07:36:41;;;;;;;;;;;7.50;99.90;;;;;;5030903;28;19916;-71
2022/11/17 07:39:06;;;;;;;;;;;7.50;99.90;;;;;;5026070;28;19921;-70
2022/11/17 07:41:32;;;;;;;;;;;7.50;99.90;;;;;;5021092;28;19991;-71
2022/11/17 07:43:57;;;;;;;;;;;7.50;99.90;;;;;;5018545;28;19920;-72
2022/11/17 07:46:23;;;;;;;;;;;7.50;99.90;;;;;;5031605;28;19933;-70
2022/11/17 07:48:51;;;;;;;;;;;7.50;99.90;;;;;;5024652;28;19921;-69
2022/11/17 07:51:17;;;;;;;;;;;7.50;99.90;;;;;;5023606;28;19920;-69
2022/11/17 07:53:42;;;;;;;;;;;7.50;99.90;;;;;;5020216;28;21202;-69
2022/11/17 07:56:09;;;;;;;;;;;7.50;99.90;;;;;;5026558;28;19975;-69
2022/11/17 07:58:35;;;;;;;;;;;7.50;99.90;;;;;;5028624;28;20398;-70
2022/11/17 08:01:08;;;;;;;;;;;7.50;99.90;;;;;;5027520;28;19917;-69
2022/11/17 08:03:33;;;;;;;;;;;7.50;99.90;;;;;;5026291;28;20011;-70
2022/11/17 08:06:05;;;;;;;;;;;7.50;99.90;;;;;;5021889;28;20000;-71
2022/11/17 08:08:31;;;;;;;;;;;7.50;99.90;;;;;;5032559;28;19963;-69
2022/11/17 08:11:07;;;;;;;;;;;7.50;99.90;;;;;;5021783;28;20274;-70
2022/11/17 08:13:33;;;;;;;;;;;7.50;99.90;;;;;;5012532;28;19943;-69
2022/11/17 08:15:58;;;;;;;;;;;7.50;99.90;;;;;;5027479;28;19917;-70
2022/11/17 08:18:24;;;;;;;;;;;7.50;99.90;;;;;;5023099;28;19929;-70
2022/11/17 08:20:50;;;;;;;;;;;7.50;99.90;;;;;;5028932;28;20330;-70
2022/11/17 08:23:16;;;;;;;;;;;7.50;99.90;;;;;;5025220;28;19979;-70
2022/11/17 08:25:41;;;;;;;;;;;7.50;99.90;;;;;;5022066;28;19924;-70
2022/11/17 08:28:07;;;;;;;;;;;7.50;99.90;;;;;;5026783;28;20016;-70
2022/11/17 08:30:34;;;;;;;;;;;7.50;99.90;;;;;;5027490;28;19921;-71
2022/11/17 08:33:00;;;;;;;;;;;7.50;99.90;;;;;;5022476;28;19948;-70
2022/11/17 08:35:26;;;;;;;;;;;7.40;99.90;;;;;;5022386;28;20382;-70
2022/11/17 08:37:52;;;;;;;;;;;7.40;99.90;;;;;;5024629;28;19925;-70
2022/11/17 08:40:17;;;;;;;;;;;7.40;99.90;;;;;;5018423;28;20007;-70
2022/11/17 08:42:43;;;;;;;;;;;7.40;99.90;;;;;;5019678;28;19924;-69
2022/11/17 08:45:09;;;;;;;;;;;7.40;99.90;;;;;;5027276;28;20063;-70
2022/11/17 08:47:35;;;;;;;;;;;7.40;99.90;;;;;;5023564;28;19928;-70
2022/11/17 08:50:01;;;;;;;;;;;7.40;99.90;;;;;;5026921;28;19917;-70
2022/11/17 08:52:27;;;;;;;;;;;7.40;99.90;;;;;;5022235;28;20310;-71
2022/11/17 08:54:53;;;;;;;;;;;7.40;99.90;;;;;;5031484;28;19917;-71
2022/11/17 08:57:20;;;;;;;;;;;7.40;99.90;;;;;;5032072;28;19928;-71
2022/11/17 08:59:46;;;;;;;;;;;7.40;99.90;;;;;;5014123;28;20400;-71
2022/11/17 09:02:12;;;;;;;;;;;7.50;99.90;;;;;;5025207;28;20118;-71
2022/11/17 09:04:38;;;;;;;;;;;7.40;99.90;;;;;;5029367;28;19960;-71
2022/11/17 09:07:03;;;;;;;;;;;7.40;99.90;;;;;;5020196;28;19925;-71
2022/11/17 09:09:30;;;;;;;;;;;7.40;99.90;;;;;;5016531;28;19922;-72
2022/11/17 09:11:56;;;;;;;;;;;7.50;99.90;;;;;;5027100;28;19917;-71
2022/11/17 09:14:22;;;;;;;;;;;7.50;99.90;;;;;;5025465;28;20370;-71
2022/11/17 09:16:47;;;;;;;;;;;7.50;99.90;;;;;;5023226;28;19920;-71
2022/11/17 09:19:14;;;;;;;;;;;7.50;99.90;;;;;;5025767;28;20003;-71
2022/11/17 09:21:39;;;;;;;;;;;7.50;99.90;;;;;;5027351;28;19932;-71
2022/11/17 09:24:05;;;;;;;;;;;7.50;99.90;;;;;;5020273;28;19917;-71
2022/11/17 09:26:31;;;;;;;;;;;7.50;99.90;;;;;;5026983;28;19968;-70
2022/11/17 09:28:59;;;;;;;;;;;7.50;99.90;;;;;;5031062;28;19948;-70
2022/11/17 09:31:25;;;;;;;;;;;7.50;99.90;;;;;;5015736;28;19948;-71
2022/11/17 09:33:51;;;;;;;;;;;7.60;99.90;;;;;;5011527;28;20325;-71
2022/11/17 09:36:16;;;;;;;;;;;7.60;99.90;;;;;;5024353;28;20019;-71
2022/11/17 09:38:42;;;;;;;;;;;7.60;99.90;;;;;;5028616;22;20168;-71
2022/11/17 09:41:19;;;;;;;;;;;7.60;99.90;;;;;;5012380;28;19921;-73
2022/11/17 09:43:49;;;;;;;;;;;7.60;99.90;;;;;;5006216;28;20001;-73
2022/11/17 09:46:26;;;;;;;;;;;7.60;99.90;;;;;;5015784;28;19921;-73
2022/11/17 09:49:05;;;;;;;;;;;7.60;99.90;;;;;;5009588;28;19962;-73
2022/11/17 09:51:31;;;;;;;;;;;7.60;99.90;;;;;;5010173;28;20000;-73
2022/11/17 09:54:20;;;;;;;;;;;7.60;99.90;;;;;;4990582;28;20585;-73
2022/11/17 09:56:46;;;;;;;;;;;7.60;99.90;;;;;;4997701;28;20015;-73
2022/11/17 09:59:14;;;;;;;;;;;7.60;99.90;;;;;;5006958;28;20335;-73
2022/11/17 10:01:39;;;;;;;;;;;7.60;99.90;;;;;;5007429;28;20024;-73
2022/11/17 10:04:13;;;;;;;;;;;7.60;99.90;;;;;;5000553;28;19929;-73
2022/11/17 10:06:40;;;;;;;;;;;7.60;99.90;;;;;;5003914;28;19921;-73
2022/11/17 10:09:25;;;;;;;;;;;7.60;99.90;;;;;;5010442;28;20290;-73
2022/11/17 10:11:51;;;;;;;;;;;7.60;99.90;;;;;;5010104;28;20309;-74
2022/11/17 10:14:19;;;;;;;;;;;7.70;99.90;;;;;;5008009;28;19917;-73
2022/11/17 10:16:52;;;;;;;;;;;7.60;99.90;;;;;;5017406;28;20379;-73
2022/11/17 10:19:23;;;;;;;;;;;7.70;99.90;;;;;;4994031;28;20306;-73
2022/11/17 10:22:11;;;;;;;;;;;7.60;99.90;;;;;;5007156;28;20426;-73
2022/11/17 10:24:49;;;;;;;;;;;7.70;99.90;;;;;;5007130;28;20342;-74
2022/11/17 10:27:20;;;;;;;;;;;7.70;99.90;;;;;;5007887;28;19921;-73
2022/11/17 10:29:58;;;;;;;;;;;7.70;99.90;;;;;;5007483;28;19917;-74
2022/11/17 10:32:24;;;;;;;;;;;7.70;99.90;;;;;;4997589;28;19917;-73
2022/11/17 10:34:50;;;;;;;;;;;7.70;99.90;;;;;;5010047;28;19964;-73
2022/11/17 10:37:19;;;;;;;;;;;7.70;99.90;;;;;;5004696;28;19917;-74
2022/11/17 10:39:44;;;;;;;;;;;7.70;99.90;;;;;;5005340;28;19924;-74
2022/11/17 10:42:16;;;;;;;;;;;7.70;99.90;;;;;;5003462;28;20367;-73
2022/11/17 10:44:42;;;;;;;;;;;7.70;99.90;;;;;;5015822;28;19997;-74
2022/11/17 10:47:22;;;;;;;;;;;7.70;99.90;;;;;;4997226;28;20047;-74
2022/11/17 10:50:03;;;;;;;;;;;7.70;99.90;;;;;;5000858;28;19924;-74
2022/11/17 10:52:29;;;;;;;;;;;7.80;99.90;;;;;;5004611;28;20007;-74
2022/11/17 10:55:09;;;;;;;;;;;7.60;99.90;;;;;;5009970;28;19952;-74
2022/11/17 10:57:34;;;;;;;;;;;7.80;99.90;;;;;;5009306;28;19921;-74
2022/11/17 11:00:00;;;;;;;;;;;7.80;99.90;;;;;;5012207;28;20393;-74
2022/11/17 11:02:28;;;;;;;;;;;7.80;99.90;;;;;;5005567;28;19944;-74
2022/11/17 11:05:05;;;;;;;;;;;7.80;99.90;;;;;;5008357;28;20321;-74
2022/11/17 11:07:31;;;;;;;;;;;7.80;99.90;;;;;;5003639;28;19921;-74
2022/11/17 11:10:03;;;;;;;;;;;7.80;99.90;;;;;;4998982;28;20291;-73
2022/11/17 11:12:33;;;;;;;;;;;7.80;99.90;;;;;;4992776;28;19924;-73
2022/11/17 11:14:58;;;;;;;;;;;7.90;99.90;;;;;;4997669;28;19925;-73
2022/11/17 11:17:26;;;;;;;;;;;7.90;99.90;;;;;;5002264;28;19918;-73
2022/11/17 11:19:52;;;;;;;;;;;7.90;99.90;;;;;;5008126;28;20571;-73
2022/11/17 11:22:23;;;;;;;;;;;8.00;99.90;;;;;;4987627;28;20032;-73
2022/11/17 11:24:49;;;;;;;;;;;8.00;99.90;;;;;;5007719;28;20159;-74
2022/11/17 11:27:22;;;;;;;;;;;8.00;99.90;;;;;;5011007;28;20175;-74
2022/11/17 11:30:06;;;;;;;;;;;8.00;99.90;;;;;;5012286;28;20330;-73
2022/11/17 11:32:36;;;;;;;;;;;8.00;99.90;;;;;;5002423;28;19972;-73
2022/11/17 11:35:20;;;;;;;;;;;8.10;99.90;;;;;;5005825;28;20007;-73
2022/11/17 11:38:06;;;;;;;;;;;8.10;99.90;;;;;;5007592;28;19933;-74
2022/11/17 11:40:36;;;;;;;;;;;8.10;99.90;;;;;;4970889;28;19927;-73
2022/11/17 11:43:08;;;;;;;;;;;8.20;99.90;;;;;;4996899;28;20217;-73
2022/11/17 11:45:46;;;;;;;;;;;8.20;99.90;;;;;;5007880;28;19921;-74
2022/11/17 11:48:15;;;;;;;;;;;8.20;99.90;;;;;;5004940;28;20311;-73
2022/11/17 11:50:46;;;;;;;;;;;8.20;99.90;;;;;;5002513;28;19917;-74
2022/11/17 11:53:22;;;;;;;;;;;8.20;99.90;;;;;;5006611;28;19922;-73
2022/11/17 11:55:48;;;;;;;;;;;8.20;99.90;;;;;;5007035;28;20309;-73
2022/11/17 11:58:23;;;;;;;;;;;8.20;99.90;;;;;;5003254;28;19922;-74
2022/11/17 12:00:51;;;;;;;;;;;8.20;99.90;;;;;;5002577;28;19925;-74
2022/11/17 12:03:34;;;;;;;;;;;8.20;99.90;;;;;;4997593;28;19917;-73
2022/11/17 12:09:22;;;;;;;;;;;8.20;99.90;;;;;;4995202;28;20314;-73
2022/11/17 12:12:00;;;;;;;;;;;8.20;99.90;;;;;;5013719;28;19917;-74
2022/11/17 12:14:30;;;;;;;;;;;8.20;99.90;;;;;;5009361;28;19917;-74
2022/11/17 12:17:22;;;;;;;;;;;8.20;99.90;;;;;;5006372;28;19918;-73
2022/11/17 12:19:52;;;;;;;;;;;8.20;99.90;;;;;;4991561;28;20303;-73
2022/11/17 12:22:17;;;;;;;;;;;8.20;99.90;;;;;;4999388;28;19957;-73
2022/11/17 12:24:44;;;;;;;;;;;8.20;99.90;;;;;;5004955;28;20418;-74
2022/11/17 12:27:42;;;;;;;;;;;8.20;99.90;;;;;;4992516;28;19929;-73
2022/11/17 12:30:26;;;;;;;;;;;8.20;99.90;;;;;;4958301;28;20294;-74
2022/11/17 12:32:52;;;;;;;;;;;8.20;99.90;;;;;;4993994;28;19983;-73
2022/11/17 12:35:18;;;;;;;;;;;8.20;99.90;;;;;;5005694;28;20366;-74
2022/11/17 12:37:44;;;;;;;;;;;8.30;99.90;;;;;;5014487;28;19933;-74
2022/11/17 12:40:29;;;;;;;;;;;8.30;99.90;;;;;;5005727;28;20394;-74
2022/11/17 12:43:13;;;;;;;;;;;8.20;99.90;;;;;;5014086;28;19917;-74
2022/11/17 12:45:51;;;;;;;;;;;8.30;99.90;;;;;;4991412;28;19918;-74
2022/11/17 12:48:18;;;;;;;;;;;8.30;99.90;;;;;;5001258;28;19956;-74
2022/11/17 12:50:49;;;;;;;;;;;8.30;99.90;;;;;;4994080;28;20036;-74
2022/11/17 12:53:27;;;;;;;;;;;8.30;99.90;;;;;;5007243;28;19922;-74
2022/11/17 12:55:59;;;;;;;;;;;8.30;99.90;;;;;;5002555;28;19921;-74
2022/11/17 12:58:43;;;;;;;;;;;8.40;99.90;;;;;;5011833;28;20363;-74
2022/11/17 13:01:41;;;;;;;;;;;8.40;99.90;;;;;;5014522;28;20516;-74
2022/11/17 13:04:12;;;;;;;;;;;8.40;99.90;;;;;;4965482;28;19996;-74
2022/11/17 13:06:37;;;;;;;;;;;8.40;99.90;;;;;;5011255;28;19917;-74
2022/11/17 13:09:10;;;;;;;;;;;8.40;99.90;;;;;;4999803;28;19933;-74
2022/11/17 13:11:35;;;;;;;;;;;8.40;99.90;;;;;;5010030;28;19924;-74
2022/11/17 13:14:14;;;;;;;;;;;8.50;99.90;;;;;;5001237;28;19921;-74
2022/11/17 13:16:44;;;;;;;;;;;8.50;99.90;;;;;;5005322;28;19956;-72
2022/11/17 13:19:28;;;;;;;;;;;8.50;99.90;;;;;;5002267;28;19921;-71
2022/11/17 13:21:58;;;;;;;;;;;8.60;99.90;;;;;;5005646;28;20556;-74
2022/11/17 13:24:31;;;;;;;;;;;8.60;99.90;;;;;;5005361;28;19924;-74
2022/11/17 13:26:58;;;;;;;;;;;8.70;99.90;;;;;;5005356;28;19959;-74
2022/11/17 13:29:23;;;;;;;;;;;8.70;99.90;;;;;;5003374;28;19918;-74
2022/11/17 13:31:49;;;;;;;;;;;8.80;99.90;;;;;;5002176;28;19925;-74
2022/11/17 13:34:16;;;;;;;;;;;8.80;99.90;;;;;;5008513;28;19918;-74
2022/11/17 13:36:59;;;;;;;;;;;8.80;99.90;;;;;;5000202;28;20012;-74
2022/11/17 13:39:28;;;;;;;;;;;8.90;99.90;;;;;;5009032;28;19932;-74
2022/11/17 13:41:55;;;;;;;;;;;8.90;99.90;;;;;;5004565;28;19917;-74
2022/11/17 13:44:25;;;;;;;;;;;8.90;99.90;;;;;;5001848;28;20439;-74
2022/11/17 13:46:50;;;;;;;;;;;8.90;99.90;;;;;;5005970;28;19931;-74
2022/11/17 13:49:35;;;;;;;;;;;8.90;99.90;;;;;;5005939;28;20016;-74
2022/11/17 13:52:01;;;;;;;;;;;9.00;99.90;;;;;;4998410;28;19921;-74
2022/11/17 13:54:26;;;;;;;;;;;9.00;99.90;;;;;;5003557;28;20383;-74
2022/11/17 13:57:00;;;;;;;;;;;9.00;99.90;;;;;;5008860;28;19964;-74
2022/11/17 13:59:27;;;;;;;;;;;9.00;99.90;;;;;;5010383;28;20024;-74
2022/11/17 14:02:11;;;;;;;;;;;9.10;99.90;;;;;;5012844;28;19964;-74
2022/11/17 14:04:37;;;;;;;;;;;9.20;99.90;;;;;;5005358;28;20518;-74
2022/11/17 14:07:02;;;;;;;;;;;9.20;99.90;;;;;;4999624;28;19965;-74
2022/11/17 14:09:29;;;;;;;;;;;9.20;99.90;;;;;;5004332;28;19921;-74
2022/11/17 14:11:56;;;;;;;;;;;9.30;99.90;;;;;;5008854;28;19917;-74
2022/11/17 14:14:29;;;;;;;;;;;9.20;99.90;;;;;;5007707;28;20027;-74
2022/11/17 14:16:56;;;;;;;;;;;9.30;99.90;;;;;;5003505;28;19916;-74
2022/11/17 14:19:28;;;;;;;;;;;9.30;99.90;;;;;;5007696;28;19922;-74
2022/11/17 14:21:56;;;;;;;;;;;9.30;99.90;;;;;;5008579;28;19926;-74
2022/11/17 14:24:22;;;;;;;;;;;9.40;99.90;;;;;;5001247;28;19917;-74
2022/11/17 14:26:47;;;;;;;;;;;9.50;99.90;;;;;;5019145;28;19971;-74
2022/11/17 14:29:13;;;;;;;;;;;9.50;99.90;;;;;;4998840;28;20347;-74
2022/11/17 14:31:38;;;;;;;;;;;9.60;99.90;;;;;;5004625;28;19925;-74
2022/11/17 14:34:04;;;;;;;;;;;9.60;99.90;;;;;;5000762;28;19917;-73
2022/11/17 14:36:30;;;;;;;;;;;9.60;99.90;;;;;;4996916;28;20016;-74
2022/11/17 14:38:56;;;;;;;;;;;9.60;99.90;;;;;;5005380;28;20354;-74
2022/11/17 14:41:22;;;;;;;;;;;9.60;99.90;;;;;;5004248;28;19932;-74
2022/11/17 14:43:47;;;;;;;;;;;9.70;99.90;;;;;;4976081;28;19918;-74
2022/11/17 14:46:23;;;;;;;;;;;9.70;99.90;;;;;;4991825;28;19945;-74
2022/11/17 14:48:49;;;;;;;;;;;9.70;99.90;;;;;;4990450;28;19925;-74
2022/11/17 14:51:15;;;;;;;;;;;9.70;99.90;;;;;;5004928;28;20383;-74
2022/11/17 14:53:41;;;;;;;;;;;9.70;99.90;;;;;;4999382;28;19965;-74
2022/11/17 14:56:07;;;;;;;;;;;9.70;99.90;;;;;;5004985;28;19918;-73
2022/11/17 14:58:33;;;;;;;;;;;9.70;99.90;;;;;;4996222;28;19921;-74
2022/11/17 15:01:05;;;;;;;;;;;9.70;99.90;;;;;;5003996;28;19975;-74
2022/11/17 15:03:30;;;;;;;;;;;9.70;99.90;;;;;;5008502;28;20398;-74
2022/11/17 15:05:56;;;;;;;;;;;9.70;99.90;;;;;;5002566;28;19925;-73
2022/11/17 15:08:21;;;;;;;;;;;9.80;99.90;;;;;;5003013;28;19921;-74
2022/11/17 15:10:47;;;;;;;;;;;9.80;99.90;;;;;;4991713;28;19932;-74